Wetterdaten: Woche 16.12.19 - 22.12.19 (KW51)
Datum Zeit Temp. Aussen Temp. o. S. Temp +5cm Feuchte Auss Luftdruck Regen Sonnenschein Regendauer Solar Windben Empfang
16.12.2019 00:00 4,0 C 3,4 C 2,7 C 89 % 1007,6 hPa 0,0 l/m 0,00 h 0,00 h 0 W/m 16,0 km/h (3 Bft) 94,99 %
16.12.2019 01:00 4,4 C 3,9 C 3,1 C 92 % 1007,2 hPa 0,0 l/m 0,00 h 0,00 h 0 W/m 18,2 km/h (3 Bft) 96,46 %
16.12.2019 02:00 5,0 C 4,7 C 3,8 C 93 % 1007,0 hPa 0,0 l/m 0,00 h 0,00 h 0 W/m 18,0 km/h (3 Bft) 98,15 %
16.12.2019 03:00 5,5 C 5,0 C 4,3 C 93 % 1007,0 hPa 0,0 l/m 0,00 h 0,00 h 0 W/m 15,9 km/h (3 Bft) 97,29 %
16.12.2019 04:00 5,6 C 5,0 C 4,3 C 94 % 1006,8 hPa 0,0 l/m 0,00 h 0,00 h 0 W/m 11,8 km/h (2 Bft) 97,51 %
16.12.2019 05:00 5,8 C 5,3 C 4,6 C 95 % 1006,7 hPa 0,0 l/m 0,00 h 0,00 h 0 W/m 14,5 km/h (3 Bft) 97,01 %
16.12.2019 06:00 6,2 C 5,6 C 5,0 C 95 % 1006,3 hPa 0,0 l/m 0,00 h 0,00 h 0 W/m 17,9 km/h (3 Bft) 98,19 %
16.12.2019 07:00 6,6 C 6,1 C 5,4 C 96 % 1006,3 hPa 0,0 l/m 0,00 h 0,00 h 0 W/m 16,1 km/h (3 Bft) 98,15 %
16.12.2019 08:00 6,7 C 6,1 C 5,4 C 96 % 1006,5 hPa 0,0 l/m 0,00 h 0,00 h 4 W/m 11,9 km/h (2 Bft) 95,66 %
16.12.2019 09:00 6,8 C 6,4 C 5,8 C 96 % 1006,9 hPa 0,0 l/m 0,00 h 0,00 h 17 W/m 11,6 km/h (2 Bft) 99,07 %
16.12.2019 10:00 7,4 C 7,5 C 6,9 C 97 % 1007,1 hPa 0,0 l/m 0,00 h 0,00 h 55 W/m 11,8 km/h (2 Bft) 98,15 %
16.12.2019 11:00 8,1 C 7,7 C 7,1 C 97 % 1006,8 hPa 0,0 l/m 0,00 h 0,53 h 48 W/m 10,8 km/h (2 Bft) 94,68 %
16.12.2019 12:00 8,6 C 7,8 C 7,1 C 97 % 1006,4 hPa 0,0 l/m 0,00 h 0,70 h 59 W/m 13,0 km/h (3 Bft) 98,86 %
16.12.2019 13:00 8,8 C 7,8 C 7,2 C 97 % 1005,9 hPa 0,0 l/m 0,00 h 0,37 h 36 W/m 13,9 km/h (3 Bft) 98,08 %
16.12.2019 14:00 8,8 C 7,8 C 7,2 C 97 % 1005,8 hPa 0,2 l/m 0,00 h 0,33 h 27 W/m 8,5 km/h (2 Bft) 95,73 %
16.12.2019 15:00 8,8 C 7,8 C 7,2 C 98 % 1005,5 hPa 0,0 l/m 0,00 h 0,00 h 14 W/m 10,6 km/h (2 Bft) 96,18 %
16.12.2019 16:00 8,6 C 7,8 C 7,1 C 98 % 1005,3 hPa 0,0 l/m 0,00 h 0,00 h 2 W/m 6,2 km/h (2 Bft) 98,15 %
16.12.2019 17:00 8,4 C 7,8 C 6,8 C 98 % 1004,8 hPa 0,0 l/m 0,00 h 0,00 h 0 W/m 4,9 km/h (1 Bft) 93,59 %
16.12.2019 18:00 8,4 C 7,6 C 6,7 C 98 % 1004,4 hPa 0,0 l/m 0,00 h 0,00 h 0 W/m 1,4 km/h (1 Bft) 97,20 %
16.12.2019 19:00 8,3 C 7,5 C 6,8 C 98 % 1004,0 hPa 0,0 l/m 0,00 h 0,00 h 0 W/m 6,7 km/h (2 Bft) 99,15 %
16.12.2019 20:00 8,4 C 7,7 C 6,7 C 99 % 1003,4 hPa 0,0 l/m 0,00 h 0,00 h 0 W/m 10,3 km/h (2 Bft) 97,29 %
16.12.2019 21:00 8,3 C 7,8 C 6,7 C 99 % 1002,7 hPa 0,0 l/m 0,00 h 0,00 h 0 W/m 12,7 km/h (3 Bft) 95,59 %
16.12.2019 22:00 8,3 C 7,8 C 7,1 C 99 % 1002,2 hPa 0,0 l/m 0,00 h 0,00 h 0 W/m 17,6 km/h (3 Bft) 99,43 %
16.12.2019 23:00 8,5 C 7,8 C 7,2 C 98 % 1001,7 hPa 0,0 l/m 0,00 h 0,00 h 0 W/m 19,5 km/h (3 Bft) 96,94 %
17.12.2019 00:00 8,8 C 8,4 C 7,7 C 97 % 1001,2 hPa 0,0 l/m 0,00 h 0,00 h 0 W/m 19,6 km/h (3 Bft) 92,69 %
17.12.2019 01:00 9,2 C 8,5 C 7,9 C 95 % 1000,8 hPa 0,0 l/m 0,00 h 0,00 h 0 W/m 20,9 km/h (4 Bft) 99,29 %
17.12.2019 02:00 9,6 C 9,0 C 8,3 C 93 % 1000,7 hPa 0,0 l/m 0,00 h 0,00 h 0 W/m 21,3 km/h (4 Bft) 96,87 %
17.12.2019 03:00 10,0 C 9,6 C 8,9 C 91 % 1000,8 hPa 0,0 l/m 0,00 h 0,00 h 0 W/m 21,5 km/h (4 Bft) 96,87 %
17.12.2019 04:00 10,5 C 10,0 C 9,1 C 89 % 1000,8 hPa 0,0 l/m 0,00 h 0,00 h 0 W/m 23,8 km/h (4 Bft) 98,02 %
17.12.2019 05:00 10,5 C 9,9 C 9,0 C 88 % 1000,9 hPa 0,0 l/m 0,00 h 0,00 h 0 W/m 23,0 km/h (4 Bft) 98,15 %
17.12.2019 06:00 10,6 C 9,9 C 9,3 C 87 % 1000,7 hPa 0,0 l/m 0,00 h 0,00 h 0 W/m 24,8 km/h (4 Bft) 96,02 %
17.12.2019 07:00 10,3 C 9,3 C 8,7 C 87 % 1001,0 hPa 0,0 l/m 0,00 h 0,00 h 0 W/m 21,5 km/h (4 Bft) 97,01 %
17.12.2019 08:00 9,8 C 9,0 C 8,3 C 89 % 1001,5 hPa 0,0 l/m 0,00 h 0,00 h 12 W/m 18,2 km/h (3 Bft) 98,43 %
17.12.2019 09:00 10,0 C 9,8 C 9,0 C 89 % 1001,8 hPa 0,0 l/m 0,00 h 0,00 h 39 W/m 16,6 km/h (3 Bft) 96,16 %
17.12.2019 10:00 10,9 C 10,9 C 10,1 C 87 % 1002,3 hPa 0,0 l/m 0,00 h 0,00 h 70 W/m 16,7 km/h (3 Bft) 98,01 %
17.12.2019 11:00 11,9 C 12,0 C 11,1 C 84 % 1002,3 hPa 0,0 l/m 0,00 h 0,00 h 60 W/m 15,2 km/h (3 Bft) 99,14 %
17.12.2019 12:00 12,6 C 12,8 C 11,8 C 84 % 1002,3 hPa 0,0 l/m 0,07 h 0,00 h 101 W/m 15,4 km/h (3 Bft) 93,39 %
17.12.2019 13:00 14,0 C 15,7 C 13,3 C 80 % 1002,1 hPa 0,0 l/m 0,83 h 0,00 h 150 W/m 14,8 km/h (3 Bft) 99,22 %
17.12.2019 14:00 15,1 C 14,9 C 13,6 C 76 % 1002,2 hPa 0,0 l/m 0,17 h 0,00 h 84 W/m 13,6 km/h (3 Bft) 98,07 %
17.12.2019 15:00 14,7 C 14,0 C 13,0 C 76 % 1002,5 hPa 0,0 l/m 0,00 h 0,00 h 34 W/m 14,2 km/h (3 Bft) 95,66 %
17.12.2019 16:00 14,3 C 13,6 C 12,8 C 77 % 1002,7 hPa 0,0 l/m 0,00 h 0,00 h 8 W/m 15,6 km/h (3 Bft) 98,79 %
17.12.2019 17:00 14,1 C 13,0 C 12,2 C 78 % 1002,8 hPa 0,0 l/m 0,00 h 0,00 h 0 W/m 14,1 km/h (3 Bft) 98,57 %
17.12.2019 18:00 13,8 C 13,0 C 12,1 C 78 % 1002,8 hPa 0,0 l/m 0,00 h 0,20 h 0 W/m 16,1 km/h (3 Bft) 96,29 %
17.12.2019 19:00 13,8 C 12,8 C 11,9 C 80 % 1002,7 hPa 0,0 l/m 0,00 h 0,17 h 0 W/m 17,6 km/h (3 Bft) 97,62 %
17.12.2019 20:00 13,2 C 10,8 C 10,1 C 85 % 1002,9 hPa 1,2 l/m 0,00 h 0,67 h 0 W/m 21,3 km/h (4 Bft) 98,23 %
17.12.2019 21:00 12,0 C 10,1 C 9,7 C 94 % 1003,9 hPa 3,0 l/m 0,00 h 1,03 h 0 W/m 28,5 km/h (4 Bft) 97,89 %
17.12.2019 22:00 11,0 C 9,2 C 8,9 C 95 % 1005,0 hPa 0,4 l/m 0,00 h 0,90 h 0 W/m 22,7 km/h (4 Bft) 96,01 %
17.12.2019 23:00 9,6 C 7,9 C 7,8 C 95 % 1006,9 hPa 0,4 l/m 0,00 h 0,70 h 0 W/m 14,4 km/h (3 Bft) 98,01 %
18.12.2019 00:00 9,1 C 7,8 C 7,3 C 96 % 1008,2 hPa 0,0 l/m 0,00 h 0,13 h 0 W/m 11,1 km/h (2 Bft) 97,16 %
18.12.2019 01:00 8,9 C 7,8 C 7,2 C 97 % 1009,5 hPa 0,0 l/m 0,00 h 0,00 h 0 W/m 9,1 km/h (2 Bft) 97,15 %
18.12.2019 02:00 8,4 C 7,2 C 6,7 C 97 % 1010,7 hPa 0,0 l/m 0,00 h 0,00 h 0 W/m 6,6 km/h (2 Bft) 96,58 %
18.12.2019 03:00 7,7 C 6,6 C 5,9 C 96 % 1011,9 hPa 0,0 l/m 0,00 h 0,00 h 0 W/m 3,1 km/h (1 Bft) 98,57 %
18.12.2019 04:00 7,1 C 6,1 C 5,5 C 96 % 1012,6 hPa 0,0 l/m 0,00 h 0,00 h 0 W/m 2,8 km/h (1 Bft) 97,62 %
18.12.2019 05:00 6,9 C 6,1 C 5,4 C 97 % 1012,9 hPa 0,0 l/m 0,00 h 0,00 h 0 W/m 3,8 km/h (1 Bft) 96,44 %
18.12.2019 06:00 7,1 C 6,4 C 5,6 C 98 % 1013,5 hPa 0,0 l/m 0,00 h 0,00 h 0 W/m 7,6 km/h (2 Bft) 97,72 %
18.12.2019 07:00 6,9 C 6,1 C 5,2 C 98 % 1014,5 hPa 0,0 l/m 0,00 h 0,00 h 0 W/m 5,0 km/h (1 Bft) 98,15 %
18.12.2019 08:00 6,4 C 5,6 C 4,7 C 97 % 1015,3 hPa 0,0 l/m 0,00 h 0,00 h 6 W/m 4,6 km/h (1 Bft) 98,22 %
18.12.2019 09:00 6,1 C 5,6 C 4,3 C 97 % 1016,2 hPa 0,0 l/m 0,00 h 0,00 h 24 W/m 1,8 km/h (1 Bft) 93,93 %
18.12.2019 10:00 6,5 C 8,6 C 4,8 C 98 % 1016,9 hPa 0,0 l/m 0,80 h 0,00 h 122 W/m 6,7 km/h (2 Bft) 97,44 %
18.12.2019 11:00 8,3 C 12,6 C 6,4 C 97 % 1017,1 hPa 0,0 l/m 0,97 h 0,00 h 228 W/m 11,5 km/h (2 Bft) 97,37 %
18.12.2019 12:00 9,8 C 12,9 C 8,0 C 87 % 1017,2 hPa 0,0 l/m 1,00 h 0,00 h 266 W/m 19,6 km/h (3 Bft) 99,23 %
18.12.2019 13:00 10,5 C 13,8 C 8,6 C 83 % 1017,3 hPa 0,0 l/m 1,00 h 0,00 h 256 W/m 17,1 km/h (3 Bft) 94,63 %
18.12.2019 14:00 10,7 C 11,5 C 8,4 C 80 % 1017,4 hPa 0,0 l/m 0,67 h 0,00 h 135 W/m 14,9 km/h (3 Bft) 99,29 %
18.12.2019 15:00 9,8 C 8,8 C 7,6 C 83 % 1017,5 hPa 0,0 l/m 0,00 h 0,00 h 36 W/m 10,1 km/h (2 Bft) 94,66 %
18.12.2019 16:00 8,7 C 7,3 C 6,3 C 85 % 1017,3 hPa 0,0 l/m 0,00 h 0,00 h 11 W/m 8,9 km/h (2 Bft) 98,86 %
18.12.2019 17:00 7,6 C 6,5 C 5,6 C 88 % 1016,9 hPa 0,0 l/m 0,00 h 0,00 h 0 W/m 13,5 km/h (3 Bft) 97,86 %
18.12.2019 18:00 7,1 C 6,3 C 5,4 C 89 % 1016,4 hPa 0,0 l/m 0,00 h 0,00 h 0 W/m 15,4 km/h (3 Bft) 97,27 %
18.12.2019 19:00 7,2 C 6,6 C 5,6 C 90 % 1016,3 hPa 0,0 l/m 0,00 h 0,00 h 0 W/m 18,4 km/h (3 Bft) 96,15 %
18.12.2019 20:00 7,4 C 6,7 C 6,0 C 91 % 1016,3 hPa 0,0 l/m 0,00 h 0,00 h 0 W/m 21,0 km/h (4 Bft) 98,08 %
18.12.2019 21:00 7,6 C 6,9 C 6,1 C 91 % 1016,1 hPa 0,0 l/m 0,00 h 0,00 h 0 W/m 24,6 km/h (4 Bft) 98,07 %
18.12.2019 22:00 7,7 C 7,1 C 6,1 C 92 % 1015,5 hPa 0,0 l/m 0,00 h 0,00 h 0 W/m 27,1 km/h (4 Bft) 96,51 %
18.12.2019 23:00 7,8 C 7,2 C 6,3 C 93 % 1015,2 hPa 0,0 l/m 0,00 h 0,00 h 0 W/m 24,3 km/h (4 Bft) 96,09 %
19.12.2019 00:00 7,9 C 7,2 C 6,6 C 94 % 1014,6 hPa 0,0 l/m 0,00 h 0,00 h 0 W/m 25,3 km/h (4 Bft) 99,41 %
19.12.2019 01:00 7,9 C 7,2 C 6,5 C 94 % 1014,0 hPa 0,0 l/m 0,00 h 0,00 h 0 W/m 23,7 km/h (4 Bft) 96,87 %
19.12.2019 02:00 7,8 C 7,2 C 6,4 C 95 % 1013,6 hPa 0,0 l/m 0,00 h 0,00 h 0 W/m 23,3 km/h (4 Bft) 94,12 %
19.12.2019 03:00 7,9 C 7,3 C 6,7 C 96 % 1013,2 hPa 0,0 l/m 0,00 h 0,00 h 0 W/m 23,6 km/h (4 Bft) 98,26 %
19.12.2019 04:00 8,3 C 7,8 C 7,0 C 96 % 1013,0 hPa 0,0 l/m 0,00 h 0,00 h 0 W/m 25,6 km/h (4 Bft) 96,68 %
19.12.2019 05:00 8,5 C 7,8 C 7,2 C 95 % 1012,7 hPa 0,0 l/m 0,00 h 0,00 h 0 W/m 25,5 km/h (4 Bft) 96,02 %
19.12.2019 06:00 8,4 C 7,7 C 7,0 C 94 % 1012,4 hPa 0,0 l/m 0,00 h 0,00 h 0 W/m 24,1 km/h (4 Bft) 99,49 %
19.12.2019 07:00 8,3 C 7,8 C 7,0 C 95 % 1012,0 hPa 0,0 l/m 0,00 h 0,00 h 0 W/m 22,9 km/h (4 Bft) 95,86 %
19.12.2019 08:00 8,4 C 7,8 C 7,1 C 94 % 1011,7 hPa 0,0 l/m 0,00 h 0,00 h 10 W/m 20,5 km/h (4 Bft) 94,97 %
19.12.2019 09:00 8,8 C 8,6 C 7,7 C 94 % 1011,2 hPa 0,0 l/m 0,00 h 0,00 h 39 W/m 22,7 km/h (4 Bft) 98,16 %
19.12.2019 10:00 10,1 C 11,4 C 9,0 C 90 % 1011,2 hPa 0,0 l/m 0,83 h 0,00 h 128 W/m 25,8 km/h (4 Bft) 96,51 %
19.12.2019 11:00 11,8 C 14,0 C 10,3 C 84 % 1010,5 hPa 0,0 l/m 0,97 h 0,00 h 222 W/m 26,4 km/h (4 Bft) 95,29 %
19.12.2019 12:00 13,1 C 15,4 C 11,3 C 81 % 1009,6 hPa 0,0 l/m 1,00 h 0,00 h 257 W/m 25,3 km/h (4 Bft) 97,58 %
19.12.2019 13:00 14,0 C 16,3 C 12,1 C 78 % 1008,6 hPa 0,0 l/m 1,00 h 0,00 h 242 W/m 25,4 km/h (4 Bft) 97,93 %
19.12.2019 14:00 14,1 C 14,7 C 12,2 C 77 % 1007,6 hPa 0,0 l/m 0,67 h 0,00 h 136 W/m 25,1 km/h (4 Bft) 97,22 %
19.12.2019 15:00 13,3 C 12,5 C 11,5 C 78 % 1006,9 hPa 0,0 l/m 0,00 h 0,00 h 25 W/m 25,7 km/h (4 Bft) 96,94 %
19.12.2019 16:00 12,4 C 11,4 C 10,6 C 80 % 1006,5 hPa 0,0 l/m 0,00 h 0,00 h 7 W/m 27,8 km/h (4 Bft) 96,80 %
19.12.2019 17:00 11,5 C 10,4 C 9,7 C 82 % 1005,8 hPa 0,0 l/m 0,00 h 0,00 h 0 W/m 23,9 km/h (4 Bft) 96,59 %
19.12.2019 18:00 10,7 C 9,8 C 9,1 C 85 % 1005,3 hPa 0,0 l/m 0,00 h 0,00 h 0 W/m 23,4 km/h (4 Bft) 99,63 %
19.12.2019 19:00 10,2 C 9,4 C 8,8 C 85 % 1004,7 hPa 0,0 l/m 0,00 h 0,00 h 0 W/m 24,4 km/h (4 Bft) 95,64 %
19.12.2019 20:00 9,9 C 9,0 C 8,4 C 86 % 1004,2 hPa 0,0 l/m 0,00 h 0,00 h 0 W/m 25,6 km/h (4 Bft) 96,02 %
19.12.2019 21:00 9,8 C 9,1 C 8,3 C 86 % 1003,4 hPa 0,0 l/m 0,00 h 0,00 h 0 W/m 26,8 km/h (4 Bft) 99,78 %
19.12.2019 22:00 9,8 C 8,9 C 8,3 C 85 % 1002,0 hPa 0,0 l/m 0,00 h 0,00 h 0 W/m 26,6 km/h (4 Bft) 96,71 %
19.12.2019 23:00 9,7 C 9,0 C 8,3 C 85 % 1001,3 hPa 0,0 l/m 0,00 h 0,00 h 0 W/m 25,1 km/h (4 Bft) 95,24 %
20.12.2019 00:00 9,9 C 9,2 C 8,4 C 83 % 999,9 hPa 0,0 l/m 0,00 h 0,00 h 0 W/m 26,6 km/h (4 Bft) 98,61 %
20.12.2019 01:00 9,9 C 9,0 C 8,3 C 83 % 998,5 hPa 0,0 l/m 0,00 h 0,00 h 0 W/m 27,5 km/h (4 Bft) 96,72 %
20.12.2019 02:00 9,5 C 8,6 C 7,9 C 83 % 997,2 hPa 0,0 l/m 0,00 h 0,00 h 0 W/m 27,9 km/h (4 Bft) 98,43 %
20.12.2019 03:00 9,3 C 8,3 C 7,8 C 84 % 995,6 hPa 0,0 l/m 0,00 h 0,00 h 0 W/m 27,8 km/h (4 Bft) 97,14 %
20.12.2019 04:00 9,2 C 8,3 C 7,8 C 84 % 994,2 hPa 0,0 l/m 0,00 h 0,00 h 0 W/m 29,9 km/h (5 Bft) 97,31 %
20.12.2019 05:00 9,2 C 8,3 C 7,8 C 83 % 993,1 hPa 0,0 l/m 0,00 h 0,00 h 0 W/m 24,7 km/h (4 Bft) 99,36 %
20.12.2019 06:00 9,1 C 8,3 C 7,7 C 83 % 992,0 hPa 0,0 l/m 0,00 h 0,00 h 0 W/m 30,3 km/h (5 Bft) 95,65 %
20.12.2019 07:00 8,8 C 8,1 C 7,5 C 84 % 990,8 hPa 0,0 l/m 0,00 h 0,00 h 0 W/m 29,2 km/h (5 Bft) 96,94 %
20.12.2019 08:00 8,9 C 8,3 C 7,8 C 83 % 989,8 hPa 0,0 l/m 0,00 h 0,00 h 8 W/m 31,3 km/h (5 Bft) 97,63 %
20.12.2019 09:00 9,2 C 8,6 C 8,1 C 83 % 988,8 hPa 0,0 l/m 0,00 h 0,00 h 17 W/m 29,5 km/h (5 Bft) 97,08 %
20.12.2019 10:00 10,0 C 9,1 C 8,6 C 81 % 988,4 hPa 0,0 l/m 0,00 h 0,33 h 27 W/m 33,5 km/h (5 Bft) 96,37 %
20.12.2019 11:00 9,9 C 7,3 C 6,9 C 87 % 987,6 hPa 0,8 l/m 0,00 h 1,00 h 36 W/m 35,2 km/h (5 Bft) 98,65 %
20.12.2019 12:00 9,6 C 7,6 C 7,2 C 91 % 986,5 hPa 0,8 l/m 0,00 h 0,97 h 26 W/m 33,8 km/h (5 Bft) 97,44 %
20.12.2019 13:00 10,1 C 8,5 C 7,8 C 91 % 985,7 hPa 0,0 l/m 0,00 h 0,57 h 53 W/m 35,9 km/h (5 Bft) 97,29 %
20.12.2019 14:00 10,7 C 9,8 C 8,8 C 90 % 985,4 hPa 0,0 l/m 0,00 h 0,00 h 25 W/m 34,0 km/h (5 Bft) 97,51 %
20.12.2019 15:00 10,9 C 10,1 C 8,9 C 91 % 985,6 hPa 0,0 l/m 0,00 h 0,13 h 19 W/m 27,9 km/h (4 Bft) 97,44 %
20.12.2019 16:00 10,9 C 10,0 C 9,2 C 92 % 986,2 hPa 0,0 l/m 0,00 h 0,00 h 9 W/m 22,7 km/h (4 Bft) 98,08 %
20.12.2019 17:00 10,8 C 9,3 C 8,7 C 93 % 987,4 hPa 1,0 l/m 0,00 h 0,73 h 0 W/m 19,8 km/h (4 Bft) 96,44 %
20.12.2019 18:00 10,2 C 8,5 C 8,0 C 94 % 988,1 hPa 0,0 l/m 0,00 h 0,60 h 0 W/m 13,3 km/h (3 Bft) 97,86 %
20.12.2019 19:00 9,6 C 8,2 C 7,4 C 92 % 988,8 hPa 0,0 l/m 0,00 h 0,00 h 0 W/m 19,0 km/h (3 Bft) 98,72 %
20.12.2019 20:00 9,2 C 8,2 C 7,4 C 90 % 989,2 hPa 0,0 l/m 0,00 h 0,00 h 0 W/m 20,9 km/h (4 Bft) 92,75 %
20.12.2019 21:00 9,2 C 8,3 C 7,8 C 88 % 989,8 hPa 0,0 l/m 0,00 h 0,00 h 0 W/m 22,2 km/h (4 Bft) 97,21 %
20.12.2019 22:00 9,0 C 8,1 C 7,5 C 85 % 990,6 hPa 0,0 l/m 0,00 h 0,00 h 0 W/m 20,0 km/h (4 Bft) 97,78 %
20.12.2019 23:00 8,2 C 7,2 C 6,5 C 86 % 991,1 hPa 0,0 l/m 0,00 h 0,00 h 0 W/m 16,3 km/h (3 Bft) 96,29 %
21.12.2019 00:00 7,6 C 6,7 C 5,9 C 87 % 991,5 hPa 0,0 l/m 0,00 h 0,00 h 0 W/m 14,7 km/h (3 Bft) 97,99 %
21.12.2019 01:00 7,5 C 6,9 C 6,2 C 89 % 991,6 hPa 0,0 l/m 0,00 h 0,00 h 0 W/m 16,5 km/h (3 Bft) 96,94 %
21.12.2019 02:00 7,7 C 7,0 C 6,5 C 88 % 992,1 hPa 0,0 l/m 0,00 h 0,00 h 0 W/m 16,0 km/h (3 Bft) 98,65 %
21.12.2019 03:00 7,5 C 6,7 C 6,1 C 88 % 992,3 hPa 0,0 l/m 0,00 h 0,00 h 0 W/m 14,1 km/h (3 Bft) 97,51 %
21.12.2019 04:00 7,1 C 6,2 C 5,6 C 89 % 992,4 hPa 0,0 l/m 0,00 h 0,00 h 0 W/m 14,2 km/h (3 Bft) 95,21 %
21.12.2019 05:00 6,7 C 5,5 C 4,8 C 90 % 992,2 hPa 0,0 l/m 0,00 h 0,00 h 0 W/m 12,6 km/h (3 Bft) 99,42 %
21.12.2019 06:00 5,9 C 4,9 C 4,1 C 91 % 992,0 hPa 0,0 l/m 0,00 h 0,00 h 0 W/m 6,4 km/h (2 Bft) 97,80 %
21.12.2019 07:00 5,6 C 4,9 C 4,1 C 93 % 991,9 hPa 0,0 l/m 0,00 h 0,00 h 0 W/m 12,8 km/h (3 Bft) 95,39 %
21.12.2019 08:00 5,6 C 5,0 C 4,2 C 94 % 991,8 hPa 0,0 l/m 0,00 h 0,00 h 9 W/m 17,0 km/h (3 Bft) 98,02 %
21.12.2019 09:00 5,7 C 5,4 C 4,5 C 94 % 992,0 hPa 0,0 l/m 0,07 h 0,00 h 39 W/m 18,0 km/h (3 Bft) 96,65 %
21.12.2019 10:00 6,9 C 8,0 C 6,4 C 93 % 991,9 hPa 0,0 l/m 0,70 h 0,00 h 125 W/m 20,8 km/h (4 Bft) 96,58 %
21.12.2019 11:00 8,3 C 8,2 C 7,4 C 89 % 991,6 hPa 0,0 l/m 0,00 h 0,00 h 76 W/m 22,8 km/h (4 Bft) 98,29 %
21.12.2019 12:00 8,5 C 8,1 C 7,5 C 89 % 990,9 hPa 0,0 l/m 0,00 h 0,07 h 61 W/m 20,1 km/h (4 Bft) 98,49 %
21.12.2019 13:00 8,9 C 9,0 C 8,2 C 88 % 990,2 hPa 0,0 l/m 0,03 h 0,00 h 90 W/m 20,5 km/h (4 Bft) 94,32 %
21.12.2019 14:00 9,5 C 9,3 C 8,5 C 84 % 989,5 hPa 0,0 l/m 0,03 h 0,00 h 51 W/m 18,4 km/h (3 Bft) 97,79 %
21.12.2019 15:00 9,5 C 8,8 C 8,0 C 83 % 988,9 hPa 0,0 l/m 0,00 h 0,00 h 27 W/m 16,7 km/h (3 Bft) 97,06 %
21.12.2019 16:00 8,7 C 7,5 C 6,9 C 84 % 988,7 hPa 0,0 l/m 0,00 h 0,00 h 11 W/m 15,7 km/h (3 Bft) 96,02 %
21.12.2019 17:00 8,1 C 7,2 C 6,7 C 85 % 989,0 hPa 0,0 l/m 0,00 h 0,00 h 0 W/m 17,3 km/h (3 Bft) 97,65 %
21.12.2019 18:00 7,4 C 6,4 C 5,7 C 86 % 988,1 hPa 0,0 l/m 0,00 h 0,00 h 0 W/m 19,6 km/h (3 Bft) 98,12 %
21.12.2019 19:00 6,9 C 6,2 C 5,6 C 88 % 987,4 hPa 0,0 l/m 0,00 h 0,00 h 0 W/m 22,3 km/h (4 Bft) 97,37 %
21.12.2019 20:00 7,3 C 6,7 C 5,9 C 86 % 986,5 hPa 0,0 l/m 0,00 h 0,00 h 0 W/m 25,0 km/h (4 Bft) 97,15 %
21.12.2019 21:00 7,4 C 6,8 C 6,1 C 85 % 985,4 hPa 0,0 l/m 0,00 h 0,00 h 0 W/m 24,4 km/h (4 Bft) 96,45 %
21.12.2019 22:00 7,6 C 6,9 C 6,1 C 84 % 984,3 hPa 0,0 l/m 0,00 h 0,00 h 0 W/m 26,0 km/h (4 Bft) 96,24 %
21.12.2019 23:00 7,6 C 6,7 C 6,1 C 85 % 983,5 hPa 0,0 l/m 0,00 h 0,00 h 0 W/m 27,8 km/h (4 Bft) 96,65 %
22.12.2019 00:00 7,4 C 6,5 C 5,8 C 86 % 982,8 hPa 0,2 l/m 0,00 h 0,40 h 0 W/m 28,3 km/h (4 Bft) 94,38 %
22.12.2019 01:00 7,1 C 5,0 C 4,5 C 90 % 982,3 hPa 1,4 l/m 0,00 h 1,00 h 0 W/m 31,6 km/h (5 Bft) 98,57 %
22.12.2019 02:00 6,5 C 5,1 C 4,4 C 93 % 982,0 hPa 0,4 l/m 0,00 h 0,30 h 0 W/m 29,9 km/h (5 Bft) 96,94 %
22.12.2019 03:00 6,5 C 5,6 C 4,8 C 94 % 981,9 hPa 0,0 l/m 0,00 h 0,00 h 0 W/m 27,8 km/h (4 Bft) 96,51 %
22.12.2019 04:00 6,7 C 5,6 C 5,0 C 94 % 981,4 hPa 0,0 l/m 0,00 h 0,00 h 0 W/m 21,6 km/h (4 Bft) 98,62 %
22.12.2019 05:00 6,6 C 5,6 C 5,0 C 95 % 981,6 hPa 0,0 l/m 0,00 h 0,00 h 0 W/m 22,3 km/h (4 Bft) 96,34 %
22.12.2019 06:00 6,7 C 6,0 C 5,5 C 95 % 981,6 hPa 0,0 l/m 0,00 h 0,03 h 0 W/m 20,7 km/h (4 Bft) 94,74 %
22.12.2019 07:00 6,7 C 5,9 C 5,2 C 95 % 981,6 hPa 0,0 l/m 0,00 h 0,00 h 0 W/m 17,6 km/h (3 Bft) 97,93 %
22.12.2019 08:00 6,9 C 6,4 C 5,6 C 96 % 981,8 hPa 0,0 l/m 0,00 h 0,10 h 10 W/m 19,7 km/h (3 Bft) 98,00 %
22.12.2019 09:00 7,4 C 7,1 C 6,5 C 96 % 982,1 hPa 0,0 l/m 0,00 h 0,00 h 15 W/m 21,0 km/h (4 Bft) 95,62 %
22.12.2019 10:00 8,1 C 7,7 C 7,1 C 94 % 982,6 hPa 0,0 l/m 0,00 h 0,03 h 33 W/m 23,6 km/h (4 Bft) 97,01 %
22.12.2019 11:00 8,6 C 7,3 C 6,9 C 95 % 983,0 hPa 0,2 l/m 0,00 h 0,53 h 48 W/m 17,5 km/h (3 Bft) 97,08 %
22.12.2019 12:00 8,8 C 7,8 C 7,2 C 97 % 983,4 hPa 0,0 l/m 0,00 h 0,50 h 62 W/m 15,9 km/h (3 Bft) 98,86 %
22.12.2019 13:00 9,2 C 8,8 C 7,9 C 97 % 983,7 hPa 0,0 l/m 0,30 h 0,00 h 108 W/m 15,0 km/h (3 Bft) 94,50 %
22.12.2019 14:00 9,8 C 8,6 C 8,1 C 95 % 984,0 hPa 0,4 l/m 0,13 h 0,27 h 39 W/m 19,5 km/h (3 Bft) 97,79 %
22.12.2019 15:00 9,2 C 7,8 C 7,2 C 96 % 984,5 hPa 1,2 l/m 0,00 h 0,83 h 11 W/m 17,1 km/h (3 Bft) 97,91 %
22.12.2019 16:00 8,8 C 7,5 C 7,2 C 97 % 985,5 hPa 0,6 l/m 0,00 h 1,00 h 4 W/m 16,6 km/h (3 Bft) 94,24 %
22.12.2019 17:00 8,5 C 7,2 C 6,8 C 98 % 986,7 hPa 1,0 l/m 0,00 h 1,00 h 0 W/m 14,0 km/h (3 Bft) 98,78 %
22.12.2019 18:00 8,0 C 6,7 C 6,5 C 98 % 988,2 hPa 0,8 l/m 0,00 h 1,00 h 0 W/m 17,6 km/h (3 Bft) 97,74 %
22.12.2019 19:00 7,5 C 6,3 C 6,0 C 98 % 989,8 hPa 1,0 l/m 0,00 h 1,00 h 0 W/m 16,9 km/h (3 Bft) 94,38 %
22.12.2019 20:00 7,4 C 6,1 C 5,9 C 98 % 991,2 hPa 0,6 l/m 0,00 h 1,00 h 0 W/m 17,6 km/h (3 Bft) 97,50 %
22.12.2019 21:00 7,2 C 6,1 C 5,6 C 98 % 992,5 hPa 0,2 l/m 0,00 h 0,63 h 0 W/m 15,5 km/h (3 Bft) 96,84 %
22.12.2019 22:00 6,7 C 5,6 C 5,2 C 97 % 993,7 hPa 0,2 l/m 0,00 h 0,00 h 0 W/m 14,3 km/h (3 Bft) 96,29 %
22.12.2019 23:00 6,7 C 5,9 C 5,3 C 97 % 995,0 hPa 0,0 l/m 0,00 h 0,00 h 0 W/m 9,5 km/h (2 Bft) 98,13 %
Min-Datum _ 16.12.19 16.12.19 16.12.19 17.12.19 22.12.19 - - - - 16.12.19 22.12.19
_ Min-Zeit 00:12 00:00 00:00 14:18 04:30 - - - - 04:10 00:02
Minimum _ 3,9 C 3,3 C 2,2 C 75 % 981,3 hPa - - - - 0,0 km/h (0 Bft) 10,53 %
Max-Datum _ 17.12.19 17.12.19 17.12.19 16.12.19 18.12.19 17.12.19 18.12.19 17.12.19 18.12.19 20.12.19 16.12.19
_ Max-Zeit 14:22 13:54 13:44 19:34 15:24 21:00 12:08 21:00 12:38 13:48 01:18
Maximum _ 15,2 C 16,7 C 13,9 C 99 % 1017,6 hPa 3,0 l/m 0,07 h 0,07 h 273 W/m 51,5 km/h
SO (7 Bft)
100,00 %
Durchschnitt _ 8,8 C 8,2 C 7,3 C 90 % 999,6 hPa #16,0 l/m #11:14 h #19:46 h 64 W/m 19,0 km/h (3 Bft) 97,13 %
© 2019 W. Hausmann